x

Big Sable Point, Mi (bsbm4) Weather Station

1:40pm - Thu 25th Aug 2016 All times are CDT. -5 hours from GMT.

  • Wind
    7mph, 9mph gusts
  • Air Temp 73°f
  • Sea Pressure 1017.3mb
  • Big Sable Point, Mi
  • Big Sable Point, Mi

More Historic Weather Station data

Upgrade to MSW Pro to gain access to the past 30 days of data for over 8000 Wavebouys and Weather Stations around the globe.

Join Pro

Comparision Forecast

View Surf forecast
   
Thu 08/25 1:40pm 7 9 mph 1017.3mb 73f
1:30pm 7 9 mph 1016.9mb 74f
1:20pm 9 10 mph 1016.9mb 74f
1:10pm 7 9 mph 1016.9mb 75f
1:00pm 8 9 mph 1016.9mb 74f
12:40pm 6 8 mph 1016.9mb 75f
12:30pm 7 8 mph 1016.9mb 74f
12:20pm 7 10 mph 1016.9mb 74f
12:10pm 8 10 mph 1016.9mb 74f
12:00pm 8 9 mph 1016.9mb 74f
11:40am 8 13 mph 1016.6mb 73f
11:30am 9 13 mph 1016.6mb 73f
11:20am 10 13 mph 1016.3mb 73f
11:10am 7 11 mph 1016.3mb 73f
11:00am 10 14 mph 1016.3mb 73f
10:40am 9 13 mph 1016.3mb 74f
10:30am 11 13 mph 1015.9mb 73f
10:20am 11 15 mph 1015.9mb 73f
10:10am 11 14 mph 1015.6mb 74f
10:00am 11 15 mph 1015.6mb 72f
9:40am 11 14 mph 1015.6mb 72f
9:30am 13 15 mph 1015.6mb 71f
9:20am 10 13 mph 1015.6mb 71f
9:10am 10 13 mph 1015.6mb 71f
9:00am 11 13 mph 1015.6mb 71f
8:40am 10 11 mph 1015.6mb 71f
8:30am 9 11 mph 1015.6mb 72f
8:20am 7 8 mph 1015.6mb 72f
8:10am 6 8 mph 1015.6mb 72f
8:00am 7 11 mph 1015.6mb 71f
7:40am 11 14 mph 1015.6mb 71f
7:30am 11 14 mph 1015.6mb 71f
7:20am 13 14 mph 1015.6mb 71f
7:10am 11 13 mph 1015.6mb 71f
7:00am 10 13 mph 1015.2mb 71f
6:40am 13 14 mph 1015.2mb 71f
6:30am 11 13 mph 1014.9mb 71f
6:20am 11 14 mph 1014.9mb 71f
6:10am 11 13 mph 1014.6mb 71f
6:00am 11 13 mph 1014.9mb 71f
5:40am 10
mph
1014.9mb 71f
5:30am 9 11 mph 1014.6mb 71f
5:20am 10 11 mph 1014.9mb 72f
5:10am 10 14 mph 1014.9mb 72f
5:00am 11 14 mph 1014.9mb 72f
4:40am 10 11 mph 1014.6mb 72f
4:30am 9 11 mph 1014.2mb 72f
4:20am 9 11 mph 1014.2mb 72f
4:10am 10 11 mph 1014.2mb 72f
4:00am 9 13 mph 1014.2mb 72f
3:40am 9 11 mph 1014.6mb 72f
3:30am 9 11 mph 1014.2mb 72f
3:20am 10 11 mph 1014.2mb 73f
3:10am 10 11 mph 1014.2mb 73f
3:00am 10 11 mph 1014.2mb 73f
2:40am 8 9 mph 1014.2mb 72f
2:30am 8 10 mph 1014.2mb 72f
2:20am 10 11 mph 1014.2mb 73f
2:10am 9 10 mph 1014.2mb 72f
2:00am 8 9 mph 1014.2mb 72f
1:40am 10 11 mph 1014.2mb 72f
1:30am 10 11 mph 1014.2mb 72f
1:20am 8 11 mph 1014.2mb 72f
1:10am 9 13 mph 1013.9mb 72f
1:00am 9 11 mph 1013.9mb 73f
12:40am 9 11 mph 1013.9mb 73f
12:30am 8 13 mph 1013.5mb 73f
12:20am 9 11 mph 1013.9mb 73f
12:10am 9 13 mph 1013.9mb 73f
12:00am 10 14 mph 1013.9mb 73f
Wed 08/24 11:40pm 8 10 mph 1013.9mb 73f
11:30pm 9 10 mph 1013.9mb 73f
11:20pm 9 11 mph 1013.9mb 73f
11:10pm 10 11 mph 1013.9mb 73f
11:00pm 9 11 mph 1013.9mb 73f
10:40pm 10 11 mph 1013.9mb 73f
10:30pm 10 11 mph 1014.2mb 73f
10:20pm 10 14 mph 1014.2mb 73f
10:10pm 11 14 mph 1014.2mb 73f
10:00pm 11 14 mph 1014.2mb 74f
9:40pm 11 14 mph 1014.2mb 73f
9:30pm 13 17 mph 1013.9mb 73f
9:20pm 14 17 mph 1014.2mb 73f
9:10pm 13 16 mph 1014.2mb 73f
9:00pm 14 17 mph 1013.9mb 74f
8:40pm 13 18 mph 1014.2mb 74f
8:30pm 14 18 mph 1013.9mb 74f
8:20pm 13 17 mph 1013.9mb 74f
8:10pm 11 18 mph 1013.9mb 74f
8:00pm 11 20 mph 1013.9mb 74f
7:40pm 11 18 mph 1013.5mb 74f
7:30pm 11 18 mph 1013.5mb 74f
7:20pm 14 18 mph 1013.2mb 74f
7:10pm 11 17 mph 1013.5mb 74f
7:00pm 13 17 mph 1013.2mb 74f
6:40pm 14 20 mph 1013.5mb 74f
6:30pm 14 20 mph 1013.2mb 75f
6:20pm 13 20 mph 1013.2mb 75f
6:10pm 14 21 mph 1013.2mb 74f
6:00pm 14 20 mph 1013.2mb 75f
5:40pm 14 21 mph 1013.2mb 75f
5:30pm 15 20 mph 1013.2mb 75f
5:20pm 15 20 mph 1013.2mb 76f
5:10pm 15 18 mph 1013.2mb 76f
5:00pm 15 21 mph 1013.2mb 76f
4:40pm 14 20 mph 1013.2mb 76f
4:30pm 16 22 mph 1013.2mb 76f
4:20pm 14 21 mph 1013.2mb 76f
4:10pm 18 23 mph 1013.2mb 75f
4:00pm 16 24 mph 1013.2mb 76f
3:40pm 18 25 mph 1013.2mb 76f
3:30pm 18 24 mph 1013.2mb 76f
3:20pm 18 25 mph 1013.2mb 76f
3:10pm 17 24 mph 1013.2mb 76f
3:00pm 20 24 mph 1013.2mb 75f
2:40pm 17 26 mph 1013.5mb 75f
2:30pm 15 24 mph 1013.5mb 75f
2:20pm 16 26 mph 1013.5mb 76f
2:10pm 18 25 mph 1013.5mb 75f
2:00pm 18 24 mph 1013.5mb 75f
1:50pm 16 26 mph 1013.9mb 75f
1:40pm 16 29 mph 1013.9mb 76f
1:33pm 18 29 mph 1013.9mb 75f
1:30pm 21 28 mph 1013.9mb 75f
1:20pm 20 26 mph 1013.9mb 76f
1:10pm 15 23 mph 1013.9mb 76f
1:00pm 15 23 mph 1013.9mb 76f
12:40pm 13 21 mph 1013.9mb 74f
12:30pm 15 22 mph 1013.9mb 73f
12:20pm 17 26 mph 1013.9mb 73f
12:10pm 18 29 mph 1013.9mb 73f
12:00pm 22
mph
1013.5mb 74f
11:50am 20 28 mph 1013.2mb 74f
11:40am 21 26 mph 1013.2mb 73f
11:30am 18 28 mph 1013.2mb 74f
11:20am 20 26 mph 1013.5mb 73f
11:10am 16 22 mph 1013.5mb 73f
11:00am 15 25 mph 1013.9mb 73f
10:50am 17 25 mph 1013.5mb 72f
10:40am 16 25 mph 1013.5mb 72f
10:30am 18 29 mph 1013.5mb 72f
10:20am 22 31 mph 1013.5mb 73f
10:10am 21 29 mph 1013.9mb 73f
10:00am 21 29 mph 1013.9mb 72f
9:59am 21 29 mph 1013.9mb 72f
9:50am 21 29 mph 1013.9mb 72f
9:40am 21 30 mph 1014.2mb 72f
9:30am 20 31 mph 1014.2mb 72f
9:20am 24 38 mph 1014.2mb 71f
9:10am 25 37 mph 1014.2mb 72f
9:00am 24
mph
1013.9mb 73f
8:50am 22 34 mph 1013.5mb 73f
8:40am 23 38 mph 1013.5mb 73f
8:30am 29 39 mph 1013.5mb 73f
8:20am 25 33 mph 1013.9mb 73f
8:10am 25 34 mph 1013.9mb 73f
8:00am 25
mph
1013.9mb 73f
7:50am 20 28 mph 1014.2mb 72f
7:40am 21 28 mph 1014.2mb 72f
7:30am 20 28 mph 1014.2mb 71f
7:20am 17 25 mph 1014.2mb 71f
7:10am 16 24 mph 1014.6mb 71f
7:00am 17 26 mph 1014.6mb 71f
6:50am 18 26 mph 1014.6mb 71f
6:40am 18 28 mph 1014.6mb 70f
6:30am 18 26 mph 1014.9mb 71f
6:20am 14 26 mph 1015.2mb 71f
6:10am 18 30 mph 1015.2mb 71f
6:00am 17 29 mph 1015.2mb 71f
5:50am 17 29 mph 1015.2mb 70f
5:40am 18 30 mph 1015.2mb 71f
5:33am 17 30 mph 1015.2mb 71f
5:30am 15 26 mph 1015.6mb 71f
5:20am 16 26 mph 1015.6mb 71f
5:10am 14 23 mph 1015.6mb 71f
5:00am 17 25 mph 1015.6mb 71f
4:50am 20 26 mph 1015.6mb 71f
4:40am 14 23 mph 1015.9mb 71f
4:30am 16 25 mph 1016.3mb 71f
4:20am 15 24 mph 1016.3mb 71f
4:10am 15 25 mph 1016.6mb 71f
4:00am 17 25 mph 1016.6mb 71f
3:50am 14 23 mph 1016.6mb 71f
3:40am 16 24 mph 1017.3mb 71f
3:30am 14 22 mph 1017.6mb 71f
3:20am 14 22 mph 1017.3mb 71f
3:10am 14 21 mph 1017.6mb 71f
3:00am 16 21 mph 1017.6mb 71f
2:50am 14 20 mph 1017.6mb 71f
2:40am 13 21 mph 1017.6mb 71f
2:30am 11 22 mph 1017.6mb 71f
2:20am 13 18 mph 1017.9mb 71f
2:10am 15 21 mph 1017.9mb 71f
2:00am 13 20 mph 1017.9mb 71f
1:50am 9 20 mph 1017.9mb 71f
1:40am 13 18 mph 1018.3mb 71f
1:30am 13 18 mph 1018.3mb 71f
1:20am 14 20 mph 1018.3mb 71f
1:10am 15 22 mph 1018.3mb 71f
1:00am 14 18 mph 1018.3mb 71f
12:50am 14 20 mph 1018.3mb 71f
12:40am 15 22 mph 1018.6mb 71f
12:30am 15 22 mph 1018.6mb 71f
12:20am 14 21 mph 1018.6mb 71f
12:10am 14 22 mph 1018.6mb 71f
12:00am 15 20 mph 1018.6mb 71f
Tue 08/23 11:50pm 15 20 mph 1018.6mb 71f
11:40pm 14 20 mph 1019mb 71f
11:30pm 13 23 mph 1019mb 72f
11:20pm 13 21 mph 1019mb 72f
11:10pm 14 20 mph 1019mb 72f
11:00pm 14 21 mph 1019.3mb 72f
10:50pm 14 20 mph 1019.3mb 72f
10:40pm 14 18 mph 1019.3mb 72f
10:30pm 14 21 mph 1019.3mb 72f
10:20pm 14 18 mph 1019.3mb 72f
10:10pm 14 18 mph 1019.6mb 72f
10:00pm 14 18 mph 1019.6mb 72f
9:50pm 13 17 mph 1020mb 72f
9:40pm 13 21 mph 1020mb 72f
9:30pm 14 21 mph 1020mb 73f
9:20pm 14 18 mph 1020mb 73f
9:10pm 15 21 mph 1020mb 74f
9:00pm 14 20 mph 1020.3mb 74f
8:50pm 18 24 mph 1020.3mb 74f
8:40pm 16 22 mph 1020.3mb 74f
8:30pm 17 24 mph 1020.3mb 74f
8:20pm 16 23 mph 1020.3mb 74f
8:10pm 17 24 mph 1020.3mb 74f
8:00pm 16 23 mph 1020.3mb 74f
7:50pm 16 23 mph 1020.3mb 74f
7:40pm 16 24 mph 1020.7mb 74f
7:30pm 18 25 mph 1020.7mb 74f
7:20pm 17 23 mph 1020.7mb 74f
7:10pm 17 24 mph 1020.7mb 74f
7:00pm 17 25 mph 1020.7mb 74f
6:50pm 18 26 mph 1020.7mb 75f
6:40pm 18 26 mph 1020.7mb 74f
6:30pm 17 25 mph 1020.7mb 75f
6:20pm 17 26 mph 1020.7mb 75f
6:10pm 18 28 mph 1020.7mb 75f
6:00pm 21 26 mph 1020.7mb 75f
5:50pm 17 26 mph 1020.7mb 75f
5:40pm 18 28 mph 1021mb 75f
5:30pm 16 24 mph 1021mb 75f
5:20pm 17 25 mph 1021mb 75f
5:10pm 16 22 mph 1021mb 75f
5:00pm 15 21 mph 1021mb 76f
4:50pm 16 23 mph 1021mb 76f
4:40pm 16 25 mph 1021mb 76f
4:30pm 17 26 mph 1021mb 76f
4:20pm 18 25 mph 1021mb 75f
4:10pm 18 26 mph 1021mb 75f
4:00pm 20 28 mph 1021mb 76f
3:40pm 20 26 mph 1021mb 76f
3:30pm 21 28 mph 1021.3mb 76f
3:20pm 17 25 mph 1021.3mb 77f
3:10pm 20 25 mph 1021.3mb 76f
3:00pm 18 23 mph 1021.3mb 76f
2:50pm 18 24 mph 1021.7mb 76f
2:40pm 16 25 mph 1021.3mb 76f
2:30pm 17 25 mph 1021.7mb 77f
2:20pm 17 24 mph 1021.7mb 76f
2:10pm 17 24 mph 1022mb 76f
2:00pm 20 24 mph 1022mb 76f
1:50pm 17 24 mph 1022mb 76f
1:40pm 17 24 mph 1022.4mb 76f
1:30pm 15 24 mph 1022.4mb 76f
1:20pm 16 25 mph 1022.4mb 76f
1:10pm 16 23 mph 1022.4mb 77f
1:00pm 15 24 mph 1022.4mb 76f
12:50pm 17 22 mph 1022.7mb 77f
12:40pm 16 23 mph 1022.7mb 76f
12:30pm 14 22 mph 1022.7mb 76f
12:20pm 16 20 mph 1023mb 76f
12:10pm 13 21 mph 1023mb 77f
12:00pm 14 22 mph 1023mb 76f
11:50am 13 22 mph 1023mb 76f
11:40am 16 23 mph 1023mb 76f
11:30am 16 22 mph 1023mb 76f
11:20am 16 24 mph 1023mb 76f
11:10am 17 24 mph 1023mb 75f
11:00am 17 23 mph 1023mb 75f
10:50am 18 24 mph 1023mb 75f
10:40am 17 23 mph 1023mb 75f
10:30am 17 24 mph 1023mb 75f
10:20am 17 23 mph 1023mb 74f
10:10am 17 23 mph 1023mb 75f
10:00am 16 21 mph 1023mb 75f
9:50am 13 22 mph 1022.7mb 75f
9:40am 15 23 mph 1022.7mb 75f
9:30am 15 20 mph 1022.7mb 75f
9:20am 15 22 mph 1022.7mb 74f
9:10am 18 22 mph 1022.4mb 74f
9:00am 15 20 mph 1022.7mb 74f
8:50am 17 20 mph 1022.4mb 74f
8:40am 15 20 mph 1022.4mb 74f
8:30am 15 20 mph 1022.4mb 74f
8:20am 16 22 mph 1022.7mb 74f
8:10am 15 20 mph 1022.7mb 74f
8:00am 14 21 mph 1022.7mb 73f
7:50am 15 22 mph 1022.4mb 73f
7:40am 9 16 mph 1022.4mb 71f
7:30am 6 9 mph 1022.4mb 70f
7:20am 6 8 mph 1022.4mb 69f
7:10am 6 8 mph 1022.4mb 68f
7:00am 6 18 mph 1022.4mb 71f
6:50am 13 18 mph 1022.4mb 72f
6:40am 10 17 mph 1022.4mb 72f
6:30am 5 8 mph 1022.4mb 67f
6:20am 5 8 mph 1022.4mb 66f
6:10am 6 8 mph 1022.4mb 66f
6:00am 7 11 mph 1022.4mb 66f
5:50am 6 9 mph 1022.4mb 65f
5:40am 7 9 mph 1022mb 65f
5:30am 7 9 mph 1022mb 63f
5:20am 6 9 mph 1022mb 64f
5:10am 7 8 mph 1022mb 63f
5:00am 6 8 mph 1022mb 62f
4:50am 7 10 mph 1022mb 62f
4:40am 8 10 mph 1022mb 62f
4:30am 8 10 mph 1022mb 63f
4:20am 7 8 mph 1022mb 63f
4:10am 6 8 mph 1022.4mb 63f
4:00am 6 7 mph 1022.4mb 63f
3:50am 5 8 mph 1022.4mb 64f
3:40am 6 7 mph 1022.4mb 63f
3:30am 5 7 mph 1022.4mb 63f
3:20am 5 6 mph 1022.4mb 63f
3:10am 3 5 mph 1022.4mb 64f
3:00am 3 11 mph 1022.4mb 67f
2:50am 7 13 mph 1022.4mb 67f
2:40am 7 15 mph 1022.4mb 72f
2:30am 11 16 mph 1022mb 72f
2:20am 13 16 mph 1022mb 72f
2:10am 15 17 mph 1022.4mb 72f
2:00am 13 16 mph 1022.4mb 73f
1:50am 14 16 mph 1022mb 73f
1:40am 13 17 mph 1022mb 73f
1:30am 16 18 mph 1022mb 73f
1:20am 14 18 mph 1021.7mb 73f
1:10am 14 20 mph 1022mb 73f
1:00am 16 18 mph 1022mb 73f
12:50am 14 20 mph 1021.7mb 73f
12:40am 16 20 mph 1021.7mb 73f
12:30am 16 20 mph 1021.7mb 73f
12:20am 16 18 mph 1021.7mb 73f
12:10am 15 18 mph 1021.7mb 73f
12:00am 14 22 mph 1021.7mb 73f
Mon 08/22 11:50pm 16 24 mph 1021.3mb 72f
11:40pm 16 24 mph 1021.3mb 72f
11:30pm 16 25 mph 1021mb 72f
11:20pm 17 24 mph 1021mb 72f
11:10pm 18 25 mph 1021mb 72f
11:00pm 17 26 mph 1021mb 72f
10:50pm 16 25 mph 1021mb 72f
10:40pm 16 26 mph 1020.7mb 72f
10:30pm 18 29 mph 1020.7mb 72f
10:20pm 18 25 mph 1020.3mb 72f
10:10pm 17 23 mph 1020.7mb 72f
10:00pm 18 24 mph 1020.7mb 72f
9:50pm 16 24 mph 1020.7mb 72f
9:40pm 14 21 mph 1020.7mb 71f
9:30pm 14 22 mph 1020.7mb 71f
9:20pm 16 23 mph 1020.7mb 71f
9:10pm 16 24 mph 1020.3mb 71f
9:00pm 16 21 mph 1020.3mb 71f
8:50pm 15 22 mph 1020.3mb 71f
8:40pm 16 24 mph 1020.3mb 71f
8:30pm 17 23 mph 1020mb 71f
8:20pm 17 24 mph 1020mb 71f
8:10pm 16 23 mph 1020mb 71f
8:00pm 17 24 mph 1020mb 71f
7:50pm 18 23 mph 1020.3mb 71f
7:40pm 16 23 mph 1020.3mb 71f
7:30pm 16 23 mph 1020.3mb 71f
7:20pm 18 22 mph 1020.7mb 72f
7:10pm 16 21 mph 1020.7mb 72f
7:00pm 15 22 mph 1020.7mb 72f
6:50pm 16 23 mph 1020.7mb 72f
6:40pm 17 22 mph 1020.7mb 72f
6:30pm 15 21 mph 1020.7mb 73f
6:20pm 13 20 mph 1020.7mb 73f
6:10pm 14 21 mph 1020.7mb 73f
6:00pm 15 21 mph 1020.7mb 73f
5:50pm 13 21 mph 1020.7mb 73f
5:40pm 15 21 mph 1021mb 73f
5:30pm 14 21 mph 1021mb 73f
5:20pm 14 20 mph 1021mb 74f
5:10pm 13 20 mph 1021mb 74f
5:00pm 14 20 mph 1021mb 74f
4:50pm 11 21 mph 1021mb 74f
4:40pm 10 21 mph 1021mb 74f
4:30pm 13 21 mph 1021.3mb 74f
4:20pm 20 23 mph 1021.3mb 73f
4:10pm 13 20 mph 1021mb 74f
4:00pm 16 21 mph 1021.3mb 74f
3:50pm 15 22 mph 1021.3mb 73f
3:40pm 16 21 mph 1021.3mb 73f
3:30pm 16 21 mph 1021.3mb 73f
3:20pm 14 18 mph 1021.3mb 74f
3:10pm 15 20 mph 1021.3mb 74f
3:00pm 14 20 mph 1021.7mb 73f
2:50pm 16 18 mph 1021.7mb 73f
2:40pm 15 18 mph 1022mb 73f
2:30pm 14 18 mph 1022mb 73f
2:20pm 13 18 mph 1022mb 73f
2:10pm 14 18 mph 1022mb 73f
2:00pm 13 17 mph 1022mb 73f
1:50pm 15 18 mph 1022mb 72f
1:40pm 15 18 mph 1022mb 73f
1:30pm 14 18 mph 1022mb 73f
1:20pm 14 18 mph 1022.4mb 72f
1:10pm 14 17 mph 1022mb 73f
1:00pm 15 17 mph 1022mb 72f
12:50pm 13 16 mph 1022mb 73f
12:40pm 13 16 mph 1022mb 73f
12:30pm 13 15 mph 1022mb 71f
12:20pm 14 15 mph 1022.4mb 71f
12:10pm 13 15 mph 1022.4mb 71f
12:00pm 13 16 mph 1022mb 71f
11:40am 11 14 mph 1022.4mb 71f
11:30am 13 14 mph 1022mb 71f
11:20am 13 14 mph 1022.4mb 71f
11:10am 10 15 mph 1022.4mb 71f
11:00am 9 14 mph 1022.4mb 71f
10:50am 10 13 mph 1022.4mb 71f
10:40am 10 14 mph 1022mb 71f
10:30am 10 13 mph 1022mb 71f
10:20am 9 13 mph 1022mb 71f
10:10am 9 13 mph 1022mb 70f
10:00am 10 14 mph 1022mb 71f
9:50am 11 13 mph 1022mb 70f
9:40am 10 11 mph 1022mb 71f
9:30am 10 11 mph 1021.7mb 70f
9:20am 10 13 mph 1021.7mb 70f
9:10am 11 13 mph 1021.3mb 70f
9:00am 9 14 mph 1021.3mb 70f
8:50am 10 13 mph 1021.3mb 70f
8:40am 10 15 mph 1021mb 70f
8:30am 11 15 mph 1021mb 69f
8:20am 13 15 mph 1021mb 69f
8:10am 11 15 mph 1021mb 69f
8:00am 13 15 mph 1020.7mb 69f
7:50am 13 15 mph 1020.7mb 69f
7:40am 14 17 mph 1020.7mb 69f
7:30am 14 16 mph 1020.7mb 69f
7:20am 13 15 mph 1020.7mb 69f
7:10am 14 16 mph 1020.7mb 69f
7:00am 14 16 mph 1020.7mb 68f
6:50am 14 16 mph 1020.3mb 68f
6:40am 15 18 mph 1020.3mb 68f
6:30am 15 17 mph 1020.3mb 68f
6:20am 15 17 mph 1020.3mb 68f
6:10am 15 17 mph 1020.3mb 68f
6:00am 14 17 mph 1020mb 68f
5:50am 14 17 mph 1020mb 68f
5:40am 15 17 mph 1019.6mb 68f
5:30am 15 17 mph 1019.6mb 68f
5:20am 15 18 mph 1019.6mb 68f
5:10am 16 18 mph 1019.6mb 68f
5:00am 16 20 mph 1019.3mb 68f
4:50am 16 20 mph 1019.3mb 68f
4:40am 15 20 mph 1019.3mb 68f
4:30am 16 20 mph 1019.3mb 68f
4:20am 17 18 mph 1019mb 68f
4:10am 17 20 mph 1019mb 68f
4:00am 15 18 mph 1019mb 68f
3:50am 15 18 mph 1019mb 68f
3:40am 16 18 mph 1019mb 68f
3:30am 15 17 mph 1019mb 68f
3:20am 15 20 mph 1018.6mb 69f
3:10am 17 20 mph 1018.6mb 69f
3:00am 16 20 mph 1018.6mb 69f
2:50am 15 20 mph 1018.6mb 69f
2:40am 17 20 mph 1018.3mb 69f
2:30am 14 18 mph 1018.3mb 69f
2:20am 14 17 mph 1018.3mb 68f
2:10am 13 17 mph 1018.3mb 68f
2:00am 14 16 mph 1018.3mb 68f
1:50am 14 18 mph 1018.3mb 68f
1:40am 14 17 mph 1018.3mb 68f
1:30am 15 17 mph 1018.3mb 67f
1:20am 14 17 mph 1018.3mb 67f
1:10am 14 17 mph 1018.3mb 67f
1:00am 14 16 mph 1018.3mb 67f
12:50am 13 16 mph 1018.3mb 67f
12:40am 11 15 mph 1018.3mb 67f
12:30am 13 15 mph 1018.3mb 67f
12:20am 11 14 mph 1017.9mb 67f
12:10am 11 14 mph 1017.9mb 67f
12:00am 8 14 mph 1017.9mb 67f
Sun 08/21 11:50pm 10 13 mph 1017.9mb 67f
11:40pm 10 14 mph 1017.6mb 67f
11:30pm 9 11 mph 1017.6mb 67f
11:20pm 8 11 mph 1017.6mb 67f
11:10pm 9 11 mph 1017.6mb 67f
11:00pm 9 11 mph 1017.6mb 67f
10:50pm 8 10 mph 1017.6mb 67f
10:40pm 9 11 mph 1017.6mb 67f
10:30pm 7 9 mph 1017.6mb 67f
10:20pm 6 9 mph 1017.6mb 66f
10:10pm 6 10 mph 1017.3mb 67f
10:00pm 7 9 mph 1017.3mb 66f
9:50pm 8 10 mph 1017.3mb 66f
9:40pm 8 10 mph 1017.3mb 66f
9:30pm 3 10 mph 1016.9mb 66f
9:20pm 7 9 mph 1016.9mb 66f
9:10pm 5 8 mph 1016.9mb 66f
9:00pm 6 9 mph 1016.9mb 66f
8:50pm 7 9 mph 1016.6mb 66f
8:40pm 9 10 mph 1016.6mb 66f
8:30pm 5 11 mph 1016.6mb 66f
8:20pm 8 11 mph 1016.3mb 66f
8:10pm 9 13 mph 1016.3mb 66f
8:00pm 8 13 mph 1016.3mb 66f
7:50pm 9 13 mph 1015.9mb 66f
7:40pm 9 13 mph 1015.9mb 66f
7:30pm 9 13 mph 1015.9mb 66f
7:20pm 8 11 mph 1015.9mb 67f